createdAt,value
2022-08-19T00:00:33.212Z,71.79
2022-08-19T00:01:33.213Z,72.03
2022-08-19T00:02:33.191Z,71.42
2022-08-19T00:03:33.442Z,70.93
2022-08-19T00:04:33.190Z,70.93
2022-08-19T00:05:33.166Z,70.57
2022-08-19T00:06:33.151Z,69.22
2022-08-19T00:07:33.147Z,68.82
2022-08-19T00:08:33.149Z,69.34
2022-08-19T00:09:33.355Z,68.94
2022-08-19T00:10:33.112Z,69.22
2022-08-19T00:11:33.182Z,69.63
2022-08-19T00:12:33.092Z,69.28
2022-08-19T00:13:34.074Z,68.94
2022-08-19T00:14:33.167Z,68.49
2022-08-19T00:15:33.280Z,69.05
2022-08-19T00:16:33.033Z,68.94
2022-08-19T00:17:33.032Z,67.98
2022-08-19T00:18:33.032Z,67.16
2022-08-19T00:19:33.010Z,67.00
2022-08-19T00:20:32.998Z,67.16
2022-08-19T00:21:33.154Z,66.26
2022-08-19T00:22:33.047Z,66.63
2022-08-19T00:23:32.963Z,66.10
2022-08-19T00:24:33.129Z,66.41
2022-08-19T00:25:32.953Z,66.57
2022-08-19T00:26:32.973Z,66.05
2022-08-19T00:27:32.927Z,65.68
2022-08-19T00:28:32.913Z,65.84
2022-08-19T00:29:32.914Z,66.05
2022-08-19T00:30:33.131Z,66.26
2022-08-19T00:31:32.885Z,66.10
2022-08-19T00:32:32.864Z,65.89
2022-08-19T00:33:32.866Z,66.15
2022-08-19T00:34:32.851Z,66.31
2022-08-19T00:35:32.834Z,65.73
2022-08-19T00:36:33.163Z,64.71
2022-08-19T00:37:32.822Z,64.56
2022-08-19T00:38:37.969Z,64.36
2022-08-19T00:39:33.853Z,63.87
2022-08-19T00:40:32.794Z,63.19
2022-08-19T00:41:32.797Z,62.62
2022-08-19T00:42:32.924Z,62.67
2022-08-19T00:43:32.765Z,62.39
2022-08-19T00:44:32.764Z,61.79
2022-08-19T00:45:32.755Z,61.65
2022-08-19T00:46:32.722Z,61.07
2022-08-19T00:47:33.036Z,61.02
2022-08-19T00:48:32.725Z,60.89
2022-08-19T00:49:32.706Z,61.02
2022-08-19T00:50:32.692Z,60.10
2022-08-19T00:51:32.666Z,60.32
2022-08-19T00:52:32.675Z,59.41
2022-08-19T00:53:32.805Z,59.20
2022-08-19T00:54:32.626Z,59.50
2022-08-19T00:55:32.658Z,60.19
2022-08-19T00:56:32.617Z,60.49
2022-08-19T00:57:32.607Z,60.45
2022-08-19T00:58:32.586Z,60.71
2022-08-19T00:59:56.168Z,60.76
2022-08-19T01:00:33.571Z,60.84
2022-08-19T01:01:32.594Z,60.89
2022-08-19T01:02:32.582Z,60.36
2022-08-19T01:03:56.476Z,59.46
2022-08-19T01:04:34.407Z,59.76
2022-08-19T01:05:32.571Z,59.93
2022-08-19T01:06:32.505Z,60.01
2022-08-19T01:07:35.900Z,59.76
2022-08-19T01:08:33.487Z,59.25
2022-08-19T01:09:32.472Z,59.93
2022-08-19T01:10:36.691Z,59.67
2022-08-19T01:11:32.466Z,59.63
2022-08-19T01:12:32.456Z,59.67
2022-08-19T01:13:49.135Z,59.71
2022-08-19T01:14:33.425Z,60.27
2022-08-19T01:15:32.408Z,59.76
2022-08-19T01:16:32.553Z,59.41
2022-08-19T01:17:32.398Z,59.25
2022-08-19T01:18:32.369Z,59.25
2022-08-19T01:19:32.387Z,59.76
2022-08-19T01:20:33.362Z,60.10
2022-08-19T01:21:32.658Z,60.23
2022-08-19T01:22:33.935Z,60.89
2022-08-19T01:23:32.328Z,61.29
2022-08-19T01:24:32.338Z,61.84
2022-08-19T01:25:32.308Z,62.02
2022-08-19T01:26:32.290Z,61.84
2022-08-19T01:27:38.041Z,61.11
2022-08-19T01:28:33.887Z,60.45
2022-08-19T01:29:32.275Z,60.36
2022-08-19T01:30:32.241Z,60.45
2022-08-19T01:31:32.797Z,60.53
2022-08-19T01:32:33.939Z,60.62
2022-08-19T01:33:32.531Z,60.76
2022-08-19T01:34:32.211Z,60.93
2022-08-19T01:35:32.222Z,61.34
2022-08-19T01:36:32.188Z,60.71
2022-08-19T01:37:32.171Z,60.98
2022-08-19T01:38:32.168Z,61.34
2022-08-19T01:39:32.509Z,61.70
2022-08-19T01:40:32.140Z,62.02
2022-08-19T01:41:32.139Z,61.93
2022-08-19T01:42:32.117Z,62.77
2022-08-19T01:43:32.105Z,62.86
2022-08-19T01:44:32.103Z,62.44
2022-08-19T01:45:32.280Z,61.97
2022-08-19T01:46:32.072Z,62.16
2022-08-19T01:47:32.072Z,62.39
2022-08-19T01:48:32.050Z,63.00
2022-08-19T01:49:32.041Z,63.19
2022-08-19T01:50:32.042Z,63.10
2022-08-19T01:51:39.643Z,63.24
2022-08-19T01:52:33.012Z,62.62
2022-08-19T01:53:33.730Z,62.72
2022-08-19T01:54:31.990Z,63.10
2022-08-19T01:55:31.982Z,63.53
2022-08-19T01:56:32.138Z,63.77
2022-08-19T01:57:31.952Z,64.26
2022-08-19T01:58:31.950Z,64.81
2022-08-19T01:59:31.940Z,63.92
2022-08-19T02:00:31.926Z,63.97
2022-08-19T02:01:31.929Z,65.02
2022-08-19T02:02:32.070Z,65.12
2022-08-19T02:03:39.415Z,65.89
2022-08-19T02:04:31.879Z,66.10
2022-08-19T02:05:31.870Z,65.63
2022-08-19T02:06:31.869Z,65.89
2022-08-19T02:07:32.229Z,65.58
2022-08-19T02:08:31.842Z,66.41
2022-08-19T02:09:31.831Z,66.31
2022-08-19T02:10:31.820Z,66.52
2022-08-19T02:11:31.808Z,65.48
2022-08-19T02:12:31.791Z,64.97
2022-08-19T02:13:31.969Z,64.66
2022-08-19T02:14:31.782Z,64.12
2022-08-19T02:15:31.760Z,65.48
2022-08-19T02:16:31.793Z,65.58
2022-08-19T02:17:31.742Z,65.58
2022-08-19T02:18:31.732Z,65.37
2022-08-19T02:19:32.078Z,65.37
2022-08-19T02:20:31.724Z,65.17
2022-08-19T02:21:31.704Z,65.02
2022-08-19T02:22:31.691Z,65.02
2022-08-19T02:23:31.745Z,65.32
2022-08-19T02:24:31.670Z,65.32
2022-08-19T02:25:31.984Z,64.86
2022-08-19T02:26:31.683Z,65.07
2022-08-19T02:27:31.637Z,65.27
2022-08-19T02:28:31.622Z,65.37
2022-08-19T02:29:31.616Z,65.84
2022-08-19T02:30:31.602Z,65.68
2022-08-19T02:31:31.790Z,65.79
2022-08-19T02:32:31.593Z,65.32
2022-08-19T02:33:31.572Z,65.48
2022-08-19T02:34:31.560Z,65.37
2022-08-19T02:35:31.555Z,65.68
2022-08-19T02:36:31.704Z,64.32
2022-08-19T02:37:31.530Z,64.07
2022-08-19T02:38:31.535Z,63.82
2022-08-19T02:39:31.535Z,63.24
2022-08-19T02:40:31.494Z,63.44
2022-08-19T02:41:31.635Z,63.48
2022-08-19T02:42:31.478Z,63.63
2022-08-19T02:43:33.823Z,63.00
2022-08-19T02:44:32.063Z,63.72
2022-08-19T02:45:31.432Z,63.34
2022-08-19T02:46:31.423Z,63.10
2022-08-19T02:47:31.584Z,63.39
2022-08-19T02:48:31.419Z,63.39
2022-08-19T02:49:34.758Z,63.58
2022-08-19T02:50:31.406Z,63.44
2022-08-19T02:51:31.374Z,62.72
2022-08-19T02:52:31.374Z,62.53
2022-08-19T02:53:31.746Z,62.44
2022-08-19T02:54:31.347Z,62.58
2022-08-19T02:55:31.334Z,62.16
2022-08-19T02:56:32.335Z,62.02
2022-08-19T02:57:31.316Z,61.93
2022-08-19T02:58:31.328Z,61.74
2022-08-19T02:59:31.531Z,61.29
2022-08-19T03:00:31.294Z,61.43
2022-08-19T03:01:31.293Z,61.25
2022-08-19T03:02:31.266Z,61.25
2022-08-19T03:03:31.244Z,60.80
2022-08-19T03:04:31.236Z,61.11
2022-08-19T03:05:47.036Z,60.76
2022-08-19T03:06:32.214Z,60.62
2022-08-19T03:07:31.225Z,60.58
2022-08-19T03:08:31.200Z,60.40
2022-08-19T03:09:31.188Z,60.10
2022-08-19T03:10:31.175Z,59.76
2022-08-19T03:11:31.472Z,58.54
2022-08-19T03:12:31.146Z,58.33
2022-08-19T03:13:31.135Z,57.61
2022-08-19T03:14:31.137Z,57.10
2022-08-19T03:15:31.134Z,57.33
2022-08-19T03:16:33.507Z,57.14
2022-08-19T03:17:31.458Z,56.71
2022-08-19T03:18:31.093Z,56.06
2022-08-19T03:19:31.075Z,55.95
2022-08-19T03:20:31.076Z,55.65
2022-08-19T03:21:31.058Z,55.32
2022-08-19T03:22:31.090Z,55.72
2022-08-19T03:23:31.195Z,55.50
2022-08-19T03:24:31.025Z,55.54
2022-08-19T03:25:31.005Z,54.95
2022-08-19T03:26:31.003Z,54.35
2022-08-19T03:27:34.177Z,54.06
2022-08-19T03:28:31.196Z,54.31
2022-08-19T03:29:31.770Z,54.67
2022-08-19T03:30:30.967Z,54.24
2022-08-19T03:31:44.681Z,54.06
2022-08-19T03:32:32.872Z,53.51
2022-08-19T03:33:30.932Z,52.80
2022-08-19T03:34:31.156Z,52.14
2022-08-19T03:35:30.905Z,51.62
2022-08-19T03:36:30.901Z,51.15
2022-08-19T03:37:30.881Z,50.93
2022-08-19T03:38:30.897Z,50.56
2022-08-19T03:39:30.907Z,50.04
2022-08-19T03:40:31.021Z,49.95
2022-08-19T03:41:44.188Z,49.77
2022-08-19T03:42:47.932Z,50.16
2022-08-19T03:43:31.818Z,50.10
2022-08-19T03:44:30.877Z,49.92
2022-08-19T03:45:30.962Z,49.39
2022-08-19T03:46:30.791Z,49.39
2022-08-19T03:47:30.807Z,49.69
2022-08-19T03:48:30.773Z,49.83
2022-08-19T03:49:30.759Z,49.19
2022-08-19T03:50:30.765Z,49.48
2022-08-19T03:51:31.293Z,50.28
2022-08-19T03:52:30.729Z,50.31
2022-08-19T03:53:30.710Z,49.74
2022-08-19T03:54:30.705Z,49.30
2022-08-19T03:55:30.697Z,49.27
2022-08-19T03:56:30.689Z,49.07
2022-08-19T03:57:31.812Z,48.78
2022-08-19T03:58:30.682Z,48.39
2022-08-19T03:59:30.648Z,48.17
2022-08-19T04:00:30.654Z,47.75
2022-08-19T04:01:35.195Z,47.62
2022-08-19T04:02:31.947Z,47.86
2022-08-19T04:03:30.650Z,48.33
2022-08-19T04:04:30.599Z,48.84
2022-08-19T04:05:30.603Z,48.28
2022-08-19T04:06:30.610Z,48.47
2022-08-19T04:07:30.559Z,49.13
2022-08-19T04:08:30.879Z,48.67
2022-08-19T04:09:30.548Z,48.64
2022-08-19T04:10:30.529Z,49.10
2022-08-19T04:11:43.984Z,48.99
2022-08-19T04:12:31.529Z,48.90
2022-08-19T04:13:30.513Z,48.50
2022-08-19T04:14:30.903Z,48.30
2022-08-19T04:15:30.474Z,48.14
2022-08-19T04:16:34.997Z,48.14
2022-08-19T04:17:30.456Z,47.83
2022-08-19T04:18:34.691Z,47.94
2022-08-19T04:19:31.446Z,47.56
2022-08-19T04:20:30.600Z,47.21
2022-08-19T04:21:30.409Z,47.67
2022-08-19T04:22:30.409Z,47.42
2022-08-19T04:23:30.392Z,47.40
2022-08-19T04:24:30.392Z,47.29
2022-08-19T04:25:30.361Z,47.16
2022-08-19T04:26:30.566Z,47.26
2022-08-19T04:27:30.347Z,47.40
2022-08-19T04:28:30.352Z,47.42
2022-08-19T04:29:30.329Z,47.59
2022-08-19T04:30:30.318Z,48.05
2022-08-19T04:31:30.301Z,48.28
2022-08-19T04:32:30.451Z,48.00
2022-08-19T04:33:30.294Z,47.48
2022-08-19T04:34:30.293Z,47.42
2022-08-19T04:35:30.261Z,47.37
2022-08-19T04:36:30.288Z,47.67
2022-08-19T04:37:35.344Z,47.62
2022-08-19T04:38:31.400Z,48.17
2022-08-19T04:39:30.247Z,48.08
2022-08-19T04:40:30.213Z,48.25
2022-08-19T04:41:30.212Z,48.44
2022-08-19T04:42:30.617Z,48.73
2022-08-19T04:43:30.338Z,48.87
2022-08-19T04:44:30.195Z,49.01
2022-08-19T04:45:39.581Z,49.27
2022-08-19T04:46:39.868Z,49.60
2022-08-19T04:47:48.284Z,49.39
2022-08-19T04:48:31.285Z,49.60
2022-08-19T04:49:30.110Z,49.24
2022-08-19T04:50:30.117Z,49.27
2022-08-19T04:51:30.091Z,49.83
2022-08-19T04:52:30.092Z,49.74
2022-08-19T04:53:37.725Z,49.33
2022-08-19T04:54:38.574Z,48.90
2022-08-19T04:55:33.402Z,49.24
2022-08-19T04:56:31.067Z,49.36
2022-08-19T04:57:30.026Z,49.65
2022-08-19T04:58:30.033Z,49.83
2022-08-19T04:59:29.999Z,48.50
2022-08-19T05:00:30.154Z,48.58
2022-08-19T05:01:30.067Z,49.19
2022-08-19T05:02:29.983Z,49.07
2022-08-19T05:03:30.630Z,48.81
2022-08-19T05:04:29.956Z,48.96
2022-08-19T05:05:29.939Z,48.96
2022-08-19T05:06:31.088Z,48.87
2022-08-19T05:07:29.921Z,49.36
2022-08-19T05:08:30.767Z,50.04
2022-08-19T05:09:53.288Z,49.65
2022-08-19T05:10:30.886Z,50.19
2022-08-19T05:11:29.872Z,50.19
2022-08-19T05:12:30.063Z,50.01
2022-08-19T05:13:29.926Z,49.39
2022-08-19T05:14:29.843Z,49.19
2022-08-19T05:15:29.832Z,49.07
2022-08-19T05:16:29.825Z,49.27
2022-08-19T05:17:33.610Z,49.16
2022-08-19T05:18:31.134Z,49.65
2022-08-19T05:19:29.785Z,48.93
2022-08-19T05:20:29.783Z,49.22
2022-08-19T05:21:29.767Z,49.30
2022-08-19T05:22:29.767Z,50.01
2022-08-19T05:23:29.756Z,50.07
2022-08-19T05:24:30.062Z,50.93
2022-08-19T05:25:29.722Z,51.81
2022-08-19T05:26:29.729Z,52.33
2022-08-19T05:27:29.713Z,52.40
2022-08-19T05:28:29.695Z,52.53
2022-08-19T05:29:36.159Z,52.53
2022-08-19T05:30:46.514Z,52.53
2022-08-19T05:31:30.694Z,52.73
2022-08-19T05:32:29.651Z,52.47
2022-08-19T05:33:29.635Z,52.20
2022-08-19T05:34:29.627Z,52.04
2022-08-19T05:35:29.801Z,52.10
2022-08-19T05:36:30.606Z,52.33
2022-08-19T05:37:29.596Z,51.91
2022-08-19T05:38:29.605Z,51.56
2022-08-19T05:39:29.590Z,51.40
2022-08-19T05:40:29.565Z,51.34
2022-08-19T05:41:29.707Z,51.24
2022-08-19T05:42:29.551Z,50.99
2022-08-19T05:43:29.529Z,50.74
2022-08-19T05:44:29.528Z,50.38
2022-08-19T05:45:29.516Z,49.83
2022-08-19T05:46:29.502Z,50.38
2022-08-19T05:47:29.658Z,51.15
2022-08-19T05:48:29.481Z,52.27
2022-08-19T05:49:29.471Z,51.91
2022-08-19T05:50:29.459Z,51.75
2022-08-19T05:51:29.490Z,51.85
2022-08-19T05:52:29.439Z,51.91
2022-08-19T05:53:29.607Z,52.27
2022-08-19T05:54:29.422Z,51.62
2022-08-19T05:55:29.407Z,51.94
2022-08-19T05:56:29.401Z,52.37
2022-08-19T05:57:29.377Z,53.65
2022-08-19T05:58:29.397Z,54.13
2022-08-19T05:59:29.548Z,53.54
2022-08-19T06:00:29.351Z,53.13
2022-08-19T06:01:29.338Z,52.86
2022-08-19T06:02:29.420Z,53.03
2022-08-19T06:03:29.313Z,52.70
2022-08-19T06:04:29.309Z,53.10
2022-08-19T06:05:29.631Z,53.92
2022-08-19T06:06:29.289Z,54.45
2022-08-19T06:07:29.309Z,54.45
2022-08-19T06:08:34.372Z,54.06
2022-08-19T06:09:30.251Z,54.70
2022-08-19T06:10:29.294Z,54.52
2022-08-19T06:11:29.553Z,54.35
2022-08-19T06:12:29.240Z,55.24
2022-08-19T06:13:29.219Z,54.63
2022-08-19T06:14:29.232Z,54.31
2022-08-19T06:15:29.199Z,54.35
2022-08-19T06:16:29.179Z,54.81
2022-08-19T06:17:29.334Z,54.77
2022-08-19T06:18:29.159Z,55.35
2022-08-19T06:19:29.148Z,55.10
2022-08-19T06:20:54.140Z,54.20
2022-08-19T06:21:30.125Z,53.92
2022-08-19T06:22:29.330Z,53.65
2022-08-19T06:23:29.106Z,53.61
2022-08-19T06:24:29.094Z,54.35
2022-08-19T06:25:30.591Z,54.38
2022-08-19T06:26:29.069Z,55.32
2022-08-19T06:27:29.108Z,56.52
2022-08-19T06:28:29.205Z,56.67
2022-08-19T06:29:29.043Z,56.67
2022-08-19T06:30:29.032Z,57.73
2022-08-19T06:31:29.040Z,58.21
2022-08-19T06:32:29.014Z,59.16
2022-08-19T06:33:29.173Z,59.63
2022-08-19T06:34:29.009Z,59.46
2022-08-19T06:35:28.984Z,60.06
2022-08-19T06:36:28.962Z,60.45
2022-08-19T06:37:28.977Z,60.32
2022-08-19T06:38:28.949Z,59.67
2022-08-19T06:39:28.962Z,59.50
2022-08-19T06:40:28.949Z,58.79
2022-08-19T06:41:28.931Z,58.21
2022-08-19T06:42:28.904Z,57.69
2022-08-19T06:43:29.137Z,58.05
2022-08-19T06:44:28.893Z,58.05
2022-08-19T06:45:35.385Z,58.05
2022-08-19T06:46:29.862Z,58.62
2022-08-19T06:47:29.869Z,58.74
2022-08-19T06:48:28.835Z,58.70
2022-08-19T06:49:28.833Z,58.42
2022-08-19T06:50:29.021Z,58.46
2022-08-19T06:52:28.784Z,58.54
2022-08-19T06:53:28.783Z,58.54
2022-08-19T06:54:30.741Z,58.79
2022-08-19T06:55:28.761Z,59.41
2022-08-19T06:56:28.893Z,59.37
2022-08-19T06:57:28.746Z,59.33
2022-08-19T06:58:28.733Z,59.50
2022-08-19T06:59:28.722Z,59.58
2022-08-19T07:00:28.812Z,59.33
2022-08-19T07:01:29.033Z,58.99
2022-08-19T07:02:28.683Z,58.58
2022-08-19T07:03:28.693Z,58.50
2022-08-19T07:04:28.667Z,59.04
2022-08-19T07:05:28.652Z,59.88
2022-08-19T07:06:44.828Z,59.84
2022-08-19T07:07:29.799Z,59.58
2022-08-19T07:08:29.256Z,59.20
2022-08-19T07:09:28.620Z,58.91
2022-08-19T07:10:28.609Z,58.42
2022-08-19T07:11:28.584Z,58.01
2022-08-19T07:12:29.652Z,58.05
2022-08-19T07:13:28.816Z,57.65
2022-08-19T07:14:28.558Z,57.53
2022-08-19T07:15:28.558Z,57.25
2022-08-19T07:16:28.973Z,56.79
2022-08-19T07:17:28.524Z,56.29
2022-08-19T07:18:28.506Z,55.72
2022-08-19T07:19:28.529Z,55.76
2022-08-19T07:20:29.599Z,55.99
2022-08-19T07:21:29.462Z,56.14
2022-08-19T07:22:28.470Z,56.90
2022-08-19T07:23:28.519Z,57.45
2022-08-19T07:24:28.480Z,58.01
2022-08-19T07:25:32.522Z,57.81
2022-08-19T07:26:28.426Z,57.89
2022-08-19T07:27:28.417Z,57.89
2022-08-19T07:28:28.404Z,57.85
2022-08-19T07:29:28.537Z,57.10
2022-08-19T07:30:28.385Z,56.59
2022-08-19T07:31:28.394Z,56.21
2022-08-19T07:32:28.388Z,56.17
2022-08-19T07:33:28.359Z,56.75
2022-08-19T07:34:28.336Z,57.25
2022-08-19T07:35:28.325Z,58.01
2022-08-19T07:36:28.317Z,59.08
2022-08-19T07:37:32.828Z,59.76
2022-08-19T07:38:28.297Z,59.97
2022-08-19T07:39:28.295Z,60.36
2022-08-19T07:40:28.275Z,60.76
2022-08-19T07:41:28.266Z,60.93
2022-08-19T07:42:28.260Z,60.01
2022-08-19T07:43:34.744Z,60.62
2022-08-19T07:44:29.285Z,60.49
2022-08-19T07:45:28.223Z,60.62
2022-08-19T07:46:28.216Z,60.89
2022-08-19T07:47:47.448Z,60.53
2022-08-19T07:48:29.428Z,60.32
2022-08-19T07:49:28.182Z,60.10
2022-08-19T07:50:28.166Z,60.36
2022-08-19T07:51:36.185Z,60.27
2022-08-19T07:52:29.140Z,60.27
2022-08-19T07:53:28.135Z,59.88
2022-08-19T07:54:28.335Z,59.88
2022-08-19T07:55:40.261Z,59.67
2022-08-19T07:56:29.096Z,59.67
2022-08-19T07:57:28.110Z,59.67
2022-08-19T07:58:28.078Z,60.10
2022-08-19T07:59:28.075Z,60.27
2022-08-19T08:00:28.251Z,60.71
2022-08-19T08:01:28.078Z,60.80
2022-08-19T08:02:28.078Z,60.23
2022-08-19T08:03:28.028Z,59.93
2022-08-19T08:04:28.031Z,59.16
2022-08-19T08:05:28.007Z,59.37
2022-08-19T08:06:28.200Z,59.54
2022-08-19T08:07:31.437Z,59.80
2022-08-19T08:08:27.981Z,59.08
2022-08-19T08:09:27.975Z,58.83
2022-08-19T08:10:27.957Z,58.01
2022-08-19T08:11:27.938Z,58.09
2022-08-19T08:12:34.780Z,57.77
2022-08-19T08:13:29.072Z,57.81
2022-08-19T08:14:28.961Z,57.77
2022-08-19T08:15:27.899Z,58.83
2022-08-19T08:16:27.900Z,59.29
2022-08-19T08:17:31.163Z,59.67
2022-08-19T08:18:30.509Z,59.80
2022-08-19T08:19:27.868Z,59.37
2022-08-19T08:20:27.914Z,59.76
2022-08-19T08:21:27.868Z,59.88
2022-08-19T08:22:27.886Z,59.67
2022-08-19T08:23:27.840Z,60.40
2022-08-19T08:24:28.592Z,60.45
2022-08-19T08:25:27.819Z,60.23
2022-08-19T08:26:27.788Z,60.67
2022-08-19T08:27:27.781Z,60.89
2022-08-19T08:28:29.597Z,60.36
2022-08-19T08:29:34.632Z,60.45
2022-08-19T08:30:31.275Z,61.02
2022-08-19T08:31:27.734Z,61.43
2022-08-19T08:32:27.740Z,62.25
2022-08-19T08:33:34.331Z,62.30
2022-08-19T08:34:28.701Z,62.86
2022-08-19T08:35:27.726Z,63.53
2022-08-19T08:36:27.844Z,65.68
2022-08-19T08:37:27.700Z,68.21
2022-08-19T08:38:28.239Z,70.10
2022-08-19T08:39:28.650Z,73.04
2022-08-19T08:40:27.634Z,73.62
2022-08-19T08:41:27.788Z,74.81
2022-08-19T08:42:27.617Z,75.35
2022-08-19T08:43:27.610Z,75.97
2022-08-19T08:44:27.591Z,76.67
2022-08-19T08:45:27.581Z,77.16
2022-08-19T08:46:30.473Z,77.74
2022-08-19T08:47:27.556Z,78.54
2022-08-19T08:48:27.542Z,78.84
2022-08-19T08:49:27.531Z,78.84
2022-08-19T08:50:27.529Z,79.21
2022-08-19T08:51:29.927Z,79.36
2022-08-19T08:52:32.217Z,79.90
2022-08-19T08:53:31.779Z,79.59
2022-08-19T08:54:28.494Z,80.98
2022-08-19T08:55:27.470Z,80.82
2022-08-19T08:56:28.484Z,81.22
2022-08-19T08:57:27.782Z,81.94
2022-08-19T08:58:27.443Z,82.42
2022-08-19T08:59:27.431Z,83.08
2022-08-19T09:00:27.421Z,84.25
2022-08-19T09:01:30.409Z,85.03
2022-08-19T09:02:27.392Z,85.11
2022-08-19T09:03:27.556Z,84.94
2022-08-19T09:04:27.391Z,84.94
2022-08-19T09:05:27.367Z,84.77
2022-08-19T09:06:28.365Z,84.77
2022-08-19T09:07:35.231Z,84.94
2022-08-19T09:08:28.652Z,85.46
2022-08-19T09:09:29.009Z,85.99
2022-08-19T09:10:27.337Z,85.29
2022-08-19T09:11:42.832Z,85.29
2022-08-19T09:12:28.291Z,85.72
2022-08-19T09:13:27.286Z,86.89
2022-08-19T09:14:49.309Z,87.07
2022-08-19T09:15:33.767Z,88.26
2022-08-19T09:16:28.315Z,89.30
2022-08-19T09:17:27.235Z,92.47
2022-08-19T09:18:29.827Z,94.89
2022-08-19T09:19:27.376Z,94.12
2022-08-19T09:20:27.194Z,94.76
2022-08-19T09:21:33.134Z,96.18
2022-08-19T09:22:28.180Z,96.74
2022-08-19T09:23:27.339Z,97.02
2022-08-19T09:24:31.178Z,96.57
2022-08-19T09:25:29.425Z,97.08
2022-08-19T09:26:29.809Z,101.07
2022-08-19T09:27:42.336Z,104.95
2022-08-19T09:28:28.122Z,107.66
2022-08-19T09:29:27.104Z,109.50
2022-08-19T09:30:27.095Z,111.77
2022-08-19T09:31:27.581Z,112.45
2022-08-19T09:32:27.217Z,113.29
2022-08-19T09:33:27.067Z,114.45
2022-08-19T09:34:27.049Z,114.14
2022-08-19T09:35:28.443Z,112.83
2022-08-19T09:36:31.177Z,112.00
2022-08-19T09:37:28.172Z,111.85
2022-08-19T09:38:27.005Z,111.70
2022-08-19T09:39:27.006Z,112.53
2022-08-19T09:40:28.091Z,113.52
2022-08-19T09:41:26.975Z,113.75
2022-08-19T09:42:30.014Z,115.48
2022-08-19T09:43:33.680Z,115.09
2022-08-19T09:44:27.938Z,116.61
2022-08-19T09:45:26.939Z,116.78
2022-08-19T09:46:26.915Z,115.48
2022-08-19T09:47:27.084Z,115.40
2022-08-19T09:48:26.896Z,115.32
2022-08-19T09:49:26.897Z,116.13
2022-08-19T09:50:26.879Z,115.96
2022-08-19T09:51:26.877Z,117.52
2022-08-19T09:52:32.661Z,117.93
2022-08-19T09:53:28.043Z,118.10
2022-08-19T09:54:26.844Z,117.68
2022-08-19T09:55:31.034Z,118.86
2022-08-19T09:56:27.815Z,118.35
2022-08-19T09:57:26.804Z,117.93
2022-08-19T09:58:26.925Z,118.18
2022-08-19T09:59:27.010Z,118.43
2022-08-19T10:00:26.774Z,118.60
2022-08-19T10:01:26.803Z,116.78
2022-08-19T10:02:26.762Z,115.89
2022-08-19T10:03:30.222Z,113.06
2022-08-19T10:04:26.926Z,112.30
2022-08-19T10:05:27.137Z,111.70
2022-08-19T10:06:45.755Z,112.00
2022-08-19T10:07:36.116Z,111.32
2022-08-19T10:08:27.691Z,111.85
2022-08-19T10:09:34.402Z,112.83
2022-08-19T10:10:27.845Z,111.92
2022-08-19T10:11:27.378Z,112.15
2022-08-19T10:12:26.638Z,110.95
2022-08-19T10:13:26.642Z,109.43
2022-08-19T10:14:26.617Z,108.78
2022-08-19T10:15:29.169Z,109.35
2022-08-19T10:16:30.279Z,110.44
2022-08-19T10:17:27.408Z,109.50
2022-08-19T10:18:27.608Z,108.86
2022-08-19T10:19:26.605Z,107.38
2022-08-19T10:20:26.569Z,107.25
2022-08-19T10:21:26.553Z,106.22
2022-08-19T10:22:26.752Z,107.18
2022-08-19T10:23:26.528Z,107.18
2022-08-19T10:24:27.516Z,105.48
2022-08-19T10:25:26.514Z,104.04
2022-08-19T10:26:26.712Z,102.19
2022-08-19T10:27:26.647Z,101.57
2022-08-19T10:28:26.695Z,100.71
2022-08-19T10:29:32.186Z,98.45
2022-08-19T10:30:27.449Z,98.28
2022-08-19T10:32:01.095Z,97.25
2022-08-19T10:32:33.691Z,96.74
2022-08-19T10:33:39.320Z,94.82
2022-08-19T10:34:28.551Z,94.23
2022-08-19T10:35:26.396Z,93.75
2022-08-19T10:36:26.387Z,94.78
2022-08-19T10:37:31.371Z,93.93
2022-08-19T10:38:31.505Z,93.09
2022-08-19T10:39:26.350Z,92.88
2022-08-19T10:40:26.634Z,93.51
2022-08-19T10:41:26.328Z,93.82
2022-08-19T10:42:26.320Z,94.46
2022-08-19T10:43:26.313Z,95.32
2022-08-19T10:44:32.102Z,95.10
2022-08-19T10:45:28.170Z,95.52
2022-08-19T10:46:26.279Z,95.79
2022-08-19T10:47:26.342Z,95.96
2022-08-19T10:48:27.262Z,97.25
2022-08-19T10:49:26.239Z,99.75
2022-08-19T10:50:28.738Z,99.69
2022-08-19T10:51:26.377Z,99.57
2022-08-19T10:52:32.494Z,102.13
2022-08-19T10:53:27.204Z,100.77
2022-08-19T10:54:32.172Z,101.32
2022-08-19T10:55:29.790Z,101.32
2022-08-19T10:56:26.430Z,101.32
2022-08-19T10:57:36.871Z,101.07
2022-08-19T10:58:27.169Z,99.57
2022-08-19T10:59:26.890Z,100.89
2022-08-19T11:00:26.131Z,102.50
2022-08-19T11:01:26.171Z,103.46
2022-08-19T11:02:26.271Z,104.49
2022-08-19T11:03:26.092Z,103.91
2022-08-19T11:04:28.847Z,105.28
2022-08-19T11:05:26.078Z,103.91
2022-08-19T11:06:26.065Z,102.19
2022-08-19T11:07:26.237Z,100.65
2022-08-19T11:08:26.049Z,100.77
2022-08-19T11:09:33.325Z,99.39
2022-08-19T11:10:27.020Z,96.24
2022-08-19T11:11:26.013Z,96.96
2022-08-19T11:12:26.012Z,94.23
2022-08-19T11:13:26.177Z,94.89
2022-08-19T11:14:25.973Z,95.21
2022-08-19T11:15:25.960Z,93.72
2022-08-19T11:16:26.116Z,93.09
2022-08-19T11:17:25.950Z,93.09
2022-08-19T11:18:25.929Z,94.14
2022-08-19T11:19:25.919Z,94.57
2022-08-19T11:20:25.922Z,93.82
2022-08-19T11:21:25.914Z,94.67
2022-08-19T11:22:34.397Z,94.44
2022-08-19T11:23:26.883Z,95.96
2022-08-19T11:24:25.901Z,95.57
2022-08-19T11:25:25.858Z,97.76
2022-08-19T11:26:25.869Z,97.42
2022-08-19T11:27:26.093Z,96.63
2022-08-19T11:28:25.846Z,96.40
2022-08-19T11:29:25.833Z,97.02
2022-08-19T11:30:25.811Z,98.57
2022-08-19T11:31:28.922Z,101.01
2022-08-19T11:32:25.792Z,102.94
2022-08-19T11:33:25.937Z,106.90
2022-08-19T11:34:25.772Z,109.00
2022-08-19T11:35:25.786Z,109.57
2022-08-19T11:36:25.741Z,111.32
2022-08-19T11:37:25.731Z,112.75
2022-08-19T11:38:25.742Z,115.80
2022-08-19T11:39:25.937Z,118.60
2022-08-19T11:40:25.695Z,119.11
2022-08-19T11:41:25.690Z,122.07
2022-08-19T11:42:25.681Z,122.07
2022-08-19T11:43:25.661Z,122.25
2022-08-19T11:44:25.652Z,125.28
2022-08-19T11:45:25.818Z,123.06
2022-08-19T11:46:25.634Z,123.52
2022-08-19T11:47:25.698Z,123.70
2022-08-19T11:48:25.615Z,121.54
2022-08-19T11:49:25.611Z,122.34
2022-08-19T11:50:25.591Z,121.19
2022-08-19T11:51:25.625Z,123.61
2022-08-19T11:52:25.577Z,122.25
2022-08-19T11:53:25.553Z,121.89
2022-08-19T11:54:25.573Z,120.84
2022-08-19T11:55:25.533Z,118.60
2022-08-19T11:56:25.574Z,120.23
2022-08-19T11:57:25.663Z,119.37
2022-08-19T11:58:25.504Z,118.52
2022-08-19T11:59:25.490Z,118.94
2022-08-19T12:00:25.510Z,119.37
2022-08-19T12:01:25.474Z,118.43
2022-08-19T12:02:25.463Z,115.56
2022-08-19T12:03:25.607Z,115.64
2022-08-19T12:04:25.532Z,113.37
2022-08-19T12:05:25.430Z,111.70
2022-08-19T12:06:25.484Z,109.28
2022-08-19T12:07:25.409Z,110.00
2022-08-19T12:08:25.436Z,108.64
2022-08-19T12:09:25.662Z,107.80
2022-08-19T12:10:26.491Z,109.57
2022-08-19T12:11:25.363Z,108.86
2022-08-19T12:12:25.365Z,110.29
2022-08-19T12:13:25.339Z,113.37
2022-08-19T12:14:25.366Z,113.14
2022-08-19T12:15:25.481Z,113.68
2022-08-19T12:16:25.308Z,113.21
2022-08-19T12:17:25.300Z,112.37
2022-08-19T12:18:25.291Z,110.51
2022-08-19T12:19:25.279Z,110.00
2022-08-19T12:20:25.294Z,109.50
2022-08-19T12:21:25.275Z,107.38
2022-08-19T12:22:25.251Z,106.70
2022-08-19T12:23:25.921Z,104.69
2022-08-19T12:24:25.223Z,105.28
2022-08-19T12:25:25.708Z,105.82
2022-08-19T12:26:25.205Z,104.43
2022-08-19T12:27:35.738Z,105.68
2022-08-19T12:28:26.192Z,105.02
2022-08-19T12:29:25.164Z,103.33
2022-08-19T12:30:25.162Z,102.19
2022-08-19T12:31:25.308Z,101.44
2022-08-19T12:32:25.137Z,101.07
2022-08-19T12:33:25.147Z,99.63
2022-08-19T12:34:25.131Z,99.39
2022-08-19T12:35:25.103Z,97.82
2022-08-19T12:36:25.087Z,97.08
2022-08-19T12:37:25.250Z,96.51
2022-08-19T12:38:25.073Z,98.10
2022-08-19T12:39:25.062Z,98.05
2022-08-19T12:40:26.299Z,97.36
2022-08-19T12:41:25.035Z,97.08
2022-08-19T12:42:25.028Z,99.45
2022-08-19T12:43:25.176Z,101.38
2022-08-19T12:44:31.861Z,103.20
2022-08-19T12:45:26.016Z,105.28
2022-08-19T12:46:26.078Z,105.62
2022-08-19T12:47:24.968Z,107.38
2022-08-19T12:48:34.751Z,106.63